sensor_id;sensor_type;location;lat;lon;timestamp;temperature;humidity
63013;DHT22;62113;45.624;11.700;2023-05-29T00:01:20;24.00;46.20
63013;DHT22;62113;45.624;11.700;2023-05-29T00:03:46;24.00;46.20
63013;DHT22;62113;45.624;11.700;2023-05-29T00:06:12;24.00;46.40
63013;DHT22;62113;45.624;11.700;2023-05-29T00:08:38;24.00;46.50
63013;DHT22;62113;45.624;11.700;2023-05-29T00:11:04;23.90;46.50
63013;DHT22;62113;45.624;11.700;2023-05-29T00:13:29;24.00;46.70
63013;DHT22;62113;45.624;11.700;2023-05-29T00:15:55;23.90;46.70
63013;DHT22;62113;45.624;11.700;2023-05-29T00:18:21;23.90;46.70
63013;DHT22;62113;45.624;11.700;2023-05-29T00:20:47;23.80;46.90
63013;DHT22;62113;45.624;11.700;2023-05-29T00:23:12;23.70;47.20
63013;DHT22;62113;45.624;11.700;2023-05-29T00:25:38;23.60;47.10
63013;DHT22;62113;45.624;11.700;2023-05-29T00:28:06;23.50;47.20
63013;DHT22;62113;45.624;11.700;2023-05-29T00:30:32;23.50;47.40
63013;DHT22;62113;45.624;11.700;2023-05-29T00:32:58;23.50;47.50
63013;DHT22;62113;45.624;11.700;2023-05-29T00:35:24;23.40;47.60
63013;DHT22;62113;45.624;11.700;2023-05-29T00:37:49;23.40;47.80
63013;DHT22;62113;45.624;11.700;2023-05-29T00:40:15;23.50;48.20
63013;DHT22;62113;45.624;11.700;2023-05-29T00:42:40;23.40;48.20
63013;DHT22;62113;45.624;11.700;2023-05-29T00:45:06;23.40;48.20
63013;DHT22;62113;45.624;11.700;2023-05-29T00:47:32;23.40;48.20
63013;DHT22;62113;45.624;11.700;2023-05-29T00:49:57;23.40;48.00
63013;DHT22;62113;45.624;11.700;2023-05-29T00:52:23;23.40;48.00
63013;DHT22;62113;45.624;11.700;2023-05-29T00:54:50;23.40;48.10
63013;DHT22;62113;45.624;11.700;2023-05-29T00:57:16;23.50;48.50
63013;DHT22;62113;45.624;11.700;2023-05-29T00:59:41;23.50;48.30
63013;DHT22;62113;45.624;11.700;2023-05-29T01:02:07;23.50;48.30
63013;DHT22;62113;45.624;11.700;2023-05-29T01:04:33;23.40;48.40
63013;DHT22;62113;45.624;11.700;2023-05-29T01:07:01;23.40;48.50
63013;DHT22;62113;45.624;11.700;2023-05-29T01:09:30;23.30;48.50
63013;DHT22;62113;45.624;11.700;2023-05-29T01:12:02;23.20;48.60
63013;DHT22;62113;45.624;11.700;2023-05-29T01:20:02;23.20;49.00
63013;DHT22;62113;45.624;11.700;2023-05-29T01:25:46;23.10;49.50
63013;DHT22;62113;45.624;11.700;2023-05-29T01:27:46;23.10;49.30
63013;DHT22;62113;45.624;11.700;2023-05-29T01:30:12;23.10;49.30
63013;DHT22;62113;45.624;11.700;2023-05-29T01:32:40;23.00;49.40
63013;DHT22;62113;45.624;11.700;2023-05-29T01:35:06;23.00;49.60
63013;DHT22;62113;45.624;11.700;2023-05-29T01:37:32;23.00;49.70
63013;DHT22;62113;45.624;11.700;2023-05-29T01:39:57;23.00;49.60
63013;DHT22;62113;45.624;11.700;2023-05-29T01:42:23;22.90;49.70
63013;DHT22;62113;45.624;11.700;2023-05-29T01:44:49;23.00;49.70
63013;DHT22;62113;45.624;11.700;2023-05-29T01:47:15;23.00;49.80
63013;DHT22;62113;45.624;11.700;2023-05-29T01:49:40;22.90;49.70
63013;DHT22;62113;45.624;11.700;2023-05-29T01:52:07;23.00;50.10
63013;DHT22;62113;45.624;11.700;2023-05-29T01:54:33;22.90;50.00
63013;DHT22;62113;45.624;11.700;2023-05-29T01:56:59;22.90;49.90
63013;DHT22;62113;45.624;11.700;2023-05-29T01:59:25;22.90;50.10
63013;DHT22;62113;45.624;11.700;2023-05-29T02:01:50;22.90;50.00
63013;DHT22;62113;45.624;11.700;2023-05-29T02:04:16;22.80;49.90
63013;DHT22;62113;45.624;11.700;2023-05-29T02:06:41;22.90;49.80
63013;DHT22;62113;45.624;11.700;2023-05-29T02:09:07;22.90;49.80
63013;DHT22;62113;45.624;11.700;2023-05-29T02:11:32;22.90;49.80
63013;DHT22;62113;45.624;11.700;2023-05-29T02:13:58;22.90;49.70
63013;DHT22;62113;45.624;11.700;2023-05-29T02:16:23;22.90;49.60
63013;DHT22;62113;45.624;11.700;2023-05-29T02:18:49;22.90;49.50
63013;DHT22;62113;45.624;11.700;2023-05-29T02:21:14;22.90;49.60
63013;DHT22;62113;45.624;11.700;2023-05-29T02:23:40;23.00;49.60
63013;DHT22;62113;45.624;11.700;2023-05-29T02:26:05;23.00;49.40
63013;DHT22;62113;45.624;11.700;2023-05-29T02:28:31;23.00;49.50
63013;DHT22;62113;45.624;11.700;2023-05-29T02:30:56;23.10;49.50
63013;DHT22;62113;45.624;11.700;2023-05-29T02:33:22;23.10;49.60
63013;DHT22;62113;45.624;11.700;2023-05-29T02:35:47;23.00;49.40
63013;DHT22;62113;45.624;11.700;2023-05-29T02:38:13;23.10;49.30
63013;DHT22;62113;45.624;11.700;2023-05-29T02:40:38;23.10;49.20
63013;DHT22;62113;45.624;11.700;2023-05-29T02:43:05;23.10;49.20
63013;DHT22;62113;45.624;11.700;2023-05-29T02:45:30;23.10;49.20
63013;DHT22;62113;45.624;11.700;2023-05-29T02:47:56;23.10;49.20
63013;DHT22;62113;45.624;11.700;2023-05-29T02:50:21;23.10;49.20
63013;DHT22;62113;45.624;11.700;2023-05-29T02:52:47;23.10;49.30
63013;DHT22;62113;45.624;11.700;2023-05-29T02:55:12;23.10;49.20
63013;DHT22;62113;45.624;11.700;2023-05-29T02:57:38;23.10;49.10
63013;DHT22;62113;45.624;11.700;2023-05-29T03:00:03;23.00;49.20
63013;DHT22;62113;45.624;11.700;2023-05-29T03:02:33;23.00;49.10
63013;DHT22;62113;45.624;11.700;2023-05-29T03:05:00;23.00;49.30
63013;DHT22;62113;45.624;11.700;2023-05-29T03:07:25;23.00;49.20
63013;DHT22;62113;45.624;11.700;2023-05-29T03:09:51;23.00;49.10
63013;DHT22;62113;45.624;11.700;2023-05-29T03:12:17;23.00;49.20
63013;DHT22;62113;45.624;11.700;2023-05-29T03:14:44;23.00;49.10
63013;DHT22;62113;45.624;11.700;2023-05-29T03:17:09;23.00;49.10
63013;DHT22;62113;45.624;11.700;2023-05-29T03:19:35;23.00;49.30
63013;DHT22;62113;45.624;11.700;2023-05-29T03:22:02;23.00;49.20
63013;DHT22;62113;45.624;11.700;2023-05-29T03:24:27;23.00;49.20
63013;DHT22;62113;45.624;11.700;2023-05-29T03:26:53;23.00;49.30
63013;DHT22;62113;45.624;11.700;2023-05-29T03:29:18;23.00;49.30
63013;DHT22;62113;45.624;11.700;2023-05-29T03:31:44;23.00;49.30
63013;DHT22;62113;45.624;11.700;2023-05-29T03:34:09;23.00;49.40
63013;DHT22;62113;45.624;11.700;2023-05-29T03:36:35;23.00;49.30
63013;DHT22;62113;45.624;11.700;2023-05-29T03:39:03;22.90;49.40
63013;DHT22;62113;45.624;11.700;2023-05-29T03:41:29;22.90;49.50
63013;DHT22;62113;45.624;11.700;2023-05-29T03:43:54;22.90;49.60
63013;DHT22;62113;45.624;11.700;2023-05-29T03:46:20;22.80;49.70
63013;DHT22;62113;45.624;11.700;2023-05-29T03:48:45;22.80;50.00
63013;DHT22;62113;45.624;11.700;2023-05-29T03:51:11;22.80;50.20
63013;DHT22;62113;45.624;11.700;2023-05-29T03:53:36;22.70;50.30
63013;DHT22;62113;45.624;11.700;2023-05-29T03:56:02;22.70;50.20
63013;DHT22;62113;45.624;11.700;2023-05-29T03:58:27;22.70;50.40
63013;DHT22;62113;45.624;11.700;2023-05-29T04:00:53;22.70;50.10
63013;DHT22;62113;45.624;11.700;2023-05-29T04:03:19;22.70;50.20
63013;DHT22;62113;45.624;11.700;2023-05-29T04:05:44;22.70;50.60
63013;DHT22;62113;45.624;11.700;2023-05-29T04:08:10;22.70;50.30
63013;DHT22;62113;45.624;11.700;2023-05-29T04:10:36;22.70;50.30
63013;DHT22;62113;45.624;11.700;2023-05-29T04:13:02;22.70;50.30
63013;DHT22;62113;45.624;11.700;2023-05-29T04:15:27;22.70;50.40
63013;DHT22;62113;45.624;11.700;2023-05-29T04:17:53;22.70;50.30
63013;DHT22;62113;45.624;11.700;2023-05-29T04:20:19;22.70;50.40
63013;DHT22;62113;45.624;11.700;2023-05-29T04:22:45;22.70;50.50
63013;DHT22;62113;45.624;11.700;2023-05-29T04:25:11;22.70;50.70
63013;DHT22;62113;45.624;11.700;2023-05-29T04:27:36;22.70;50.70
63013;DHT22;62113;45.624;11.700;2023-05-29T04:30:03;22.80;50.70
63013;DHT22;62113;45.624;11.700;2023-05-29T04:32:29;22.90;50.80
63013;DHT22;62113;45.624;11.700;2023-05-29T04:34:55;22.90;50.70
63013;DHT22;62113;45.624;11.700;2023-05-29T04:37:20;23.00;50.70
63013;DHT22;62113;45.624;11.700;2023-05-29T04:39:55;23.10;50.70
63013;DHT22;62113;45.624;11.700;2023-05-29T04:42:21;23.20;50.70
63013;DHT22;62113;45.624;11.700;2023-05-29T04:44:47;23.20;50.50
63013;DHT22;62113;45.624;11.700;2023-05-29T04:47:14;23.20;50.50
63013;DHT22;62113;45.624;11.700;2023-05-29T04:49:41;23.40;50.20
63013;DHT22;62113;45.624;11.700;2023-05-29T04:52:07;23.40;50.40
63013;DHT22;62113;45.624;11.700;2023-05-29T04:54:33;23.70;50.20
63013;DHT22;62113;45.624;11.700;2023-05-29T04:56:59;24.10;49.90
63013;DHT22;62113;45.624;11.700;2023-05-29T04:59:25;24.50;49.30
63013;DHT22;62113;45.624;11.700;2023-05-29T05:01:51;24.70;48.50
63013;DHT22;62113;45.624;11.700;2023-05-29T05:04:17;24.80;48.30
63013;DHT22;62113;45.624;11.700;2023-05-29T05:06:42;24.90;48.10
63013;DHT22;62113;45.624;11.700;2023-05-29T05:09:09;24.90;48.00
63013;DHT22;62113;45.624;11.700;2023-05-29T05:11:35;24.90;48.10
63013;DHT22;62113;45.624;11.700;2023-05-29T05:14:00;25.00;47.90
63013;DHT22;62113;45.624;11.700;2023-05-29T05:16:26;25.00;48.00
63013;DHT22;62113;45.624;11.700;2023-05-29T05:18:51;25.10;47.90
63013;DHT22;62113;45.624;11.700;2023-05-29T05:21:17;25.20;48.00
63013;DHT22;62113;45.624;11.700;2023-05-29T05:23:42;25.20;47.90
63013;DHT22;62113;45.624;11.700;2023-05-29T05:26:08;25.30;47.90
63013;DHT22;62113;45.624;11.700;2023-05-29T05:28:33;25.40;47.70
63013;DHT22;62113;45.624;11.700;2023-05-29T05:31:00;25.40;47.70
63013;DHT22;62113;45.624;11.700;2023-05-29T05:33:26;25.60;47.70
63013;DHT22;62113;45.624;11.700;2023-05-29T05:35:52;25.60;47.60
63013;DHT22;62113;45.624;11.700;2023-05-29T05:38:17;25.70;47.70
63013;DHT22;62113;45.624;11.700;2023-05-29T05:40:43;25.80;47.60
63013;DHT22;62113;45.624;11.700;2023-05-29T05:43:10;25.90;47.50
63013;DHT22;62113;45.624;11.700;2023-05-29T05:45:35;26.10;47.20
63013;DHT22;62113;45.624;11.700;2023-05-29T05:48:02;26.20;47.20
63013;DHT22;62113;45.624;11.700;2023-05-29T05:50:28;26.30;47.10
63013;DHT22;62113;45.624;11.700;2023-05-29T05:52:54;26.40;46.80
63013;DHT22;62113;45.624;11.700;2023-05-29T05:55:19;26.50;46.60
63013;DHT22;62113;45.624;11.700;2023-05-29T05:57:45;26.60;46.40
63013;DHT22;62113;45.624;11.700;2023-05-29T06:00:11;26.70;46.20
63013;DHT22;62113;45.624;11.700;2023-05-29T06:02:39;26.90;46.00
63013;DHT22;62113;45.624;11.700;2023-05-29T06:05:08;27.00;45.60
63013;DHT22;62113;45.624;11.700;2023-05-29T06:07:34;27.20;45.40
63013;DHT22;62113;45.624;11.700;2023-05-29T06:10:01;27.30;45.20
63013;DHT22;62113;45.624;11.700;2023-05-29T06:12:26;27.60;44.80
63013;DHT22;62113;45.624;11.700;2023-05-29T06:14:52;27.90;44.50
63013;DHT22;62113;45.624;11.700;2023-05-29T06:17:18;28.30;44.00
63013;DHT22;62113;45.624;11.700;2023-05-29T06:19:43;29.10;43.10
63013;DHT22;62113;45.624;11.700;2023-05-29T06:22:09;30.30;41.20
63013;DHT22;62113;45.624;11.700;2023-05-29T06:24:34;31.70;39.20
63013;DHT22;62113;45.624;11.700;2023-05-29T06:27:00;33.10;37.00
63013;DHT22;62113;45.624;11.700;2023-05-29T06:29:26;34.40;35.30
63013;DHT22;62113;45.624;11.700;2023-05-29T06:31:52;35.60;33.50
63013;DHT22;62113;45.624;11.700;2023-05-29T06:34:17;36.50;32.20
63013;DHT22;62113;45.624;11.700;2023-05-29T06:36:43;37.30;30.70
63013;DHT22;62113;45.624;11.700;2023-05-29T06:39:09;38.20;29.70
63013;DHT22;62113;45.624;11.700;2023-05-29T06:41:34;38.90;29.10
63013;DHT22;62113;45.624;11.700;2023-05-29T06:44:00;39.70;28.30
63013;DHT22;62113;45.624;11.700;2023-05-29T06:46:25;40.30;27.90
63013;DHT22;62113;45.624;11.700;2023-05-29T06:48:51;40.80;27.30
63013;DHT22;62113;45.624;11.700;2023-05-29T06:51:17;41.40;26.40
63013;DHT22;62113;45.624;11.700;2023-05-29T06:53:42;41.60;25.10
63013;DHT22;62113;45.624;11.700;2023-05-29T06:56:08;41.90;25.80
63013;DHT22;62113;45.624;11.700;2023-05-29T06:58:33;42.30;25.30
63013;DHT22;62113;45.624;11.700;2023-05-29T07:00:59;42.70;24.80
63013;DHT22;62113;45.624;11.700;2023-05-29T07:03:25;43.10;24.30
63013;DHT22;62113;45.624;11.700;2023-05-29T07:05:51;43.50;24.00
63013;DHT22;62113;45.624;11.700;2023-05-29T07:08:16;43.80;23.60
63013;DHT22;62113;45.624;11.700;2023-05-29T07:10:42;44.00;23.10
63013;DHT22;62113;45.624;11.700;2023-05-29T07:13:07;44.00;22.90
63013;DHT22;62113;45.624;11.700;2023-05-29T07:15:34;44.10;22.60
63013;DHT22;62113;45.624;11.700;2023-05-29T07:17:59;44.20;22.60
63013;DHT22;62113;45.624;11.700;2023-05-29T07:20:25;44.50;22.20
63013;DHT22;62113;45.624;11.700;2023-05-29T07:22:50;44.50;22.00
63013;DHT22;62113;45.624;11.700;2023-05-29T07:25:16;44.80;21.90
63013;DHT22;62113;45.624;11.700;2023-05-29T07:27:41;45.20;21.50
63013;DHT22;62113;45.624;11.700;2023-05-29T07:30:07;45.40;20.40
63013;DHT22;62113;45.624;11.700;2023-05-29T07:32:33;45.40;20.20
63013;DHT22;62113;45.624;11.700;2023-05-29T07:34:58;44.80;19.70
63013;DHT22;62113;45.624;11.700;2023-05-29T07:37:24;44.70;20.20
63013;DHT22;62113;45.624;11.700;2023-05-29T07:39:49;44.50;17.80
63013;DHT22;62113;45.624;11.700;2023-05-29T07:42:15;44.00;20.00
63013;DHT22;62113;45.624;11.700;2023-05-29T07:44:40;43.60;19.80
63013;DHT22;62113;45.624;11.700;2023-05-29T07:47:09;43.10;18.40
63013;DHT22;62113;45.624;11.700;2023-05-29T07:49:34;42.60;18.90
63013;DHT22;62113;45.624;11.700;2023-05-29T07:52:01;42.80;20.30
63013;DHT22;62113;45.624;11.700;2023-05-29T07:54:27;42.70;19.70
63013;DHT22;62113;45.624;11.700;2023-05-29T07:56:52;43.20;20.90
63013;DHT22;62113;45.624;11.700;2023-05-29T07:59:18;43.20;19.60
63013;DHT22;62113;45.624;11.700;2023-05-29T08:01:43;42.90;20.00
63013;DHT22;62113;45.624;11.700;2023-05-29T08:04:09;43.10;20.10
63013;DHT22;62113;45.624;11.700;2023-05-29T08:06:35;43.10;20.60
63013;DHT22;62113;45.624;11.700;2023-05-29T08:09:01;42.80;20.00
63013;DHT22;62113;45.624;11.700;2023-05-29T08:11:27;42.80;19.30
63013;DHT22;62113;45.624;11.700;2023-05-29T08:13:52;42.50;19.70
63013;DHT22;62113;45.624;11.700;2023-05-29T08:16:18;42.60;19.30
63013;DHT22;62113;45.624;11.700;2023-05-29T08:18:43;42.50;19.50
63013;DHT22;62113;45.624;11.700;2023-05-29T08:21:09;42.50;18.80
63013;DHT22;62113;45.624;11.700;2023-05-29T08:23:35;42.10;20.20
63013;DHT22;62113;45.624;11.700;2023-05-29T08:26:01;40.80;21.20
63013;DHT22;62113;45.624;11.700;2023-05-29T08:28:28;39.40;22.40
63013;DHT22;62113;45.624;11.700;2023-05-29T08:30:53;37.50;23.20
63013;DHT22;62113;45.624;11.700;2023-05-29T08:33:19;35.60;24.50
63013;DHT22;62113;45.624;11.700;2023-05-29T08:35:44;35.00;27.20
63013;DHT22;62113;45.624;11.700;2023-05-29T08:38:10;34.30;27.00
63013;DHT22;62113;45.624;11.700;2023-05-29T08:40:35;33.50;26.80
63013;DHT22;62113;45.624;11.700;2023-05-29T08:45:27;32.70;28.40
63013;DHT22;62113;45.624;11.700;2023-05-29T08:47:54;32.40;29.50
63013;DHT22;62113;45.624;11.700;2023-05-29T08:50:20;32.20;29.60
63013;DHT22;62113;45.624;11.700;2023-05-29T08:52:46;32.10;30.40
63013;DHT22;62113;45.624;11.700;2023-05-29T08:55:12;32.10;30.30
63013;DHT22;62113;45.624;11.700;2023-05-29T08:57:38;32.10;30.50
63013;DHT22;62113;45.624;11.700;2023-05-29T09:00:04;31.70;30.00
63013;DHT22;62113;45.624;11.700;2023-05-29T09:02:43;31.50;30.80
63013;DHT22;62113;45.624;11.700;2023-05-29T09:05:09;31.30;31.20
63013;DHT22;62113;45.624;11.700;2023-05-29T09:07:38;31.30;32.10
63013;DHT22;62113;45.624;11.700;2023-05-29T09:10:05;31.20;31.80
63013;DHT22;62113;45.624;11.700;2023-05-29T09:12:31;31.20;30.90
63013;DHT22;62113;45.624;11.700;2023-05-29T09:14:57;31.30;30.70
63013;DHT22;62113;45.624;11.700;2023-05-29T09:17:22;31.50;30.90
63013;DHT22;62113;45.624;11.700;2023-05-29T09:19:48;31.70;30.60
63013;DHT22;62113;45.624;11.700;2023-05-29T09:22:14;31.60;32.20
63013;DHT22;62113;45.624;11.700;2023-05-29T09:24:40;31.30;31.60
63013;DHT22;62113;45.624;11.700;2023-05-29T09:27:06;31.20;31.40
63013;DHT22;62113;45.624;11.700;2023-05-29T09:29:33;31.20;30.90
63013;DHT22;62113;45.624;11.700;2023-05-29T09:32:03;31.20;31.20
63013;DHT22;62113;45.624;11.700;2023-05-29T09:34:32;31.00;31.80
63013;DHT22;62113;45.624;11.700;2023-05-29T09:37:05;30.90;31.30
63013;DHT22;62113;45.624;11.700;2023-05-29T09:39:49;31.00;31.40
63013;DHT22;62113;45.624;11.700;2023-05-29T09:42:17;31.00;31.80
63013;DHT22;62113;45.624;11.700;2023-05-29T09:44:44;31.00;31.30
63013;DHT22;62113;45.624;11.700;2023-05-29T09:47:13;30.90;31.60
63013;DHT22;62113;45.624;11.700;2023-05-29T09:49:42;30.90;31.00
63013;DHT22;62113;45.624;11.700;2023-05-29T09:52:10;31.10;31.80
63013;DHT22;62113;45.624;11.700;2023-05-29T09:54:39;31.00;32.20
63013;DHT22;62113;45.624;11.700;2023-05-29T09:57:06;31.00;32.80
63013;DHT22;62113;45.624;11.700;2023-05-29T09:59:33;30.90;31.90
63013;DHT22;62113;45.624;11.700;2023-05-29T10:02:03;30.80;31.30
63013;DHT22;62113;45.624;11.700;2023-05-29T10:04:32;30.80;31.30
63013;DHT22;62113;45.624;11.700;2023-05-29T10:06:57;30.80;32.00
63013;DHT22;62113;45.624;11.700;2023-05-29T10:09:26;30.80;30.70
63013;DHT22;62113;45.624;11.700;2023-05-29T10:11:52;31.10;31.20
63013;DHT22;62113;45.624;11.700;2023-05-29T10:14:21;31.20;31.30
63013;DHT22;62113;45.624;11.700;2023-05-29T10:16:48;31.30;30.90
63013;DHT22;62113;45.624;11.700;2023-05-29T10:19:19;31.40;30.40
63013;DHT22;62113;45.624;11.700;2023-05-29T10:21:47;31.40;30.20
63013;DHT22;62113;45.624;11.700;2023-05-29T10:24:13;31.50;30.70
63013;DHT22;62113;45.624;11.700;2023-05-29T10:26:39;31.50;30.60
63013;DHT22;62113;45.624;11.700;2023-05-29T10:31:43;31.20;31.50
63013;DHT22;62113;45.624;11.700;2023-05-29T10:36:42;31.30;30.90
63013;DHT22;62113;45.624;11.700;2023-05-29T10:39:09;31.20;30.00
63013;DHT22;62113;45.624;11.700;2023-05-29T10:41:35;31.20;30.10
63013;DHT22;62113;45.624;11.700;2023-05-29T10:44:37;31.20;30.00
63013;DHT22;62113;45.624;11.700;2023-05-29T10:49:19;31.20;30.40
63013;DHT22;62113;45.624;11.700;2023-05-29T10:51:45;31.30;30.40
63013;DHT22;62113;45.624;11.700;2023-05-29T10:54:11;31.30;30.10
63013;DHT22;62113;45.624;11.700;2023-05-29T10:56:36;31.40;30.20
63013;DHT22;62113;45.624;11.700;2023-05-29T10:59:02;31.50;30.30
63013;DHT22;62113;45.624;11.700;2023-05-29T11:01:28;31.50;29.60
63013;DHT22;62113;45.624;11.700;2023-05-29T11:04:39;31.60;29.70
63013;DHT22;62113;45.624;11.700;2023-05-29T11:06:43;31.50;29.20
63013;DHT22;62113;45.624;11.700;2023-05-29T11:12:24;31.50;29.70
63013;DHT22;62113;45.624;11.700;2023-05-29T11:15:08;31.30;29.30
63013;DHT22;62113;45.624;11.700;2023-05-29T11:20:01;31.20;29.50
63013;DHT22;62113;45.624;11.700;2023-05-29T11:22:30;31.20;29.90
63013;DHT22;62113;45.624;11.700;2023-05-29T11:24:59;31.20;29.80
63013;DHT22;62113;45.624;11.700;2023-05-29T11:27:25;31.20;29.70
63013;DHT22;62113;45.624;11.700;2023-05-29T11:29:51;31.20;29.90
63013;DHT22;62113;45.624;11.700;2023-05-29T11:32:20;31.20;30.20
63013;DHT22;62113;45.624;11.700;2023-05-29T11:34:46;31.20;29.60
63013;DHT22;62113;45.624;11.700;2023-05-29T11:37:13;31.20;29.20
63013;DHT22;62113;45.624;11.700;2023-05-29T11:39:40;31.20;29.10
63013;DHT22;62113;45.624;11.700;2023-05-29T11:42:07;31.20;28.30
63013;DHT22;62113;45.624;11.700;2023-05-29T11:44:33;31.20;28.60
63013;DHT22;62113;45.624;11.700;2023-05-29T11:49:31;31.20;29.60
63013;DHT22;62113;45.624;11.700;2023-05-29T11:52:10;31.30;29.20
63013;DHT22;62113;45.624;11.700;2023-05-29T11:54:36;31.40;29.40
63013;DHT22;62113;45.624;11.700;2023-05-29T11:57:02;31.40;28.30
63013;DHT22;62113;45.624;11.700;2023-05-29T11:59:30;31.30;28.20
63013;DHT22;62113;45.624;11.700;2023-05-29T12:01:56;31.30;28.60
63013;DHT22;62113;45.624;11.700;2023-05-29T12:04:21;31.30;28.30
63013;DHT22;62113;45.624;11.700;2023-05-29T12:06:47;31.30;28.90
63013;DHT22;62113;45.624;11.700;2023-05-29T12:09:28;31.20;28.90
63013;DHT22;62113;45.624;11.700;2023-05-29T12:12:03;31.30;28.90
63013;DHT22;62113;45.624;11.700;2023-05-29T12:14:28;31.30;29.30
63013;DHT22;62113;45.624;11.700;2023-05-29T12:16:54;31.30;29.20
63013;DHT22;62113;45.624;11.700;2023-05-29T12:19:20;31.30;29.40
63013;DHT22;62113;45.624;11.700;2023-05-29T12:21:45;31.30;29.20
63013;DHT22;62113;45.624;11.700;2023-05-29T12:24:11;31.20;29.00
63013;DHT22;62113;45.624;11.700;2023-05-29T12:26:36;31.20;29.00
63013;DHT22;62113;45.624;11.700;2023-05-29T12:29:02;31.20;29.30
63013;DHT22;62113;45.624;11.700;2023-05-29T12:31:29;31.20;29.40
63013;DHT22;62113;45.624;11.700;2023-05-29T12:33:59;31.30;29.40
63013;DHT22;62113;45.624;11.700;2023-05-29T12:36:25;31.20;29.20
63013;DHT22;62113;45.624;11.700;2023-05-29T12:38:51;31.10;29.40
63013;DHT22;62113;45.624;11.700;2023-05-29T12:41:24;31.00;29.70
63013;DHT22;62113;45.624;11.700;2023-05-29T12:43:55;30.90;29.90
63013;DHT22;62113;45.624;11.700;2023-05-29T12:46:20;30.80;29.90
63013;DHT22;62113;45.624;11.700;2023-05-29T12:48:46;30.80;30.00
63013;DHT22;62113;45.624;11.700;2023-05-29T12:51:12;30.80;30.20
63013;DHT22;62113;45.624;11.700;2023-05-29T12:53:37;30.90;30.30
63013;DHT22;62113;45.624;11.700;2023-05-29T12:56:03;30.90;30.00
63013;DHT22;62113;45.624;11.700;2023-05-29T12:58:28;30.80;30.10
63013;DHT22;62113;45.624;11.700;2023-05-29T13:00:54;30.80;29.90
63013;DHT22;62113;45.624;11.700;2023-05-29T13:03:22;30.70;30.70
63013;DHT22;62113;45.624;11.700;2023-05-29T13:05:49;30.70;30.30
63013;DHT22;62113;45.624;11.700;2023-05-29T13:08:15;30.70;30.40
63013;DHT22;62113;45.624;11.700;2023-05-29T13:10:41;30.80;30.30
63013;DHT22;62113;45.624;11.700;2023-05-29T13:13:06;30.80;30.10
63013;DHT22;62113;45.624;11.700;2023-05-29T13:15:32;30.80;30.20
63013;DHT22;62113;45.624;11.700;2023-05-29T13:17:59;30.80;30.40
63013;DHT22;62113;45.624;11.700;2023-05-29T13:20:24;30.90;30.70
63013;DHT22;62113;45.624;11.700;2023-05-29T13:22:50;31.00;31.00
63013;DHT22;62113;45.624;11.700;2023-05-29T13:25:16;31.20;31.20
63013;DHT22;62113;45.624;11.700;2023-05-29T13:27:44;31.20;31.00
63013;DHT22;62113;45.624;11.700;2023-05-29T13:30:10;31.30;31.00
63013;DHT22;62113;45.624;11.700;2023-05-29T13:32:35;31.40;31.00
63013;DHT22;62113;45.624;11.700;2023-05-29T13:35:01;31.50;30.90
63013;DHT22;62113;45.624;11.700;2023-05-29T13:37:27;31.60;30.60
63013;DHT22;62113;45.624;11.700;2023-05-29T13:39:53;31.60;29.20
63013;DHT22;62113;45.624;11.700;2023-05-29T13:42:18;31.70;29.70
63013;DHT22;62113;45.624;11.700;2023-05-29T13:44:44;31.60;29.20
63013;DHT22;62113;45.624;11.700;2023-05-29T13:47:10;31.40;29.20
63013;DHT22;62113;45.624;11.700;2023-05-29T13:49:35;31.20;29.40
63013;DHT22;62113;45.624;11.700;2023-05-29T13:52:04;31.20;29.70
63013;DHT22;62113;45.624;11.700;2023-05-29T13:54:29;31.20;30.10
63013;DHT22;62113;45.624;11.700;2023-05-29T13:56:57;31.20;30.30
63013;DHT22;62113;45.624;11.700;2023-05-29T13:59:23;31.20;29.90
63013;DHT22;62113;45.624;11.700;2023-05-29T14:01:49;31.20;30.00
63013;DHT22;62113;45.624;11.700;2023-05-29T14:04:14;31.20;30.00
63013;DHT22;62113;45.624;11.700;2023-05-29T14:06:40;31.20;30.00
63013;DHT22;62113;45.624;11.700;2023-05-29T14:09:05;31.20;29.90
63013;DHT22;62113;45.624;11.700;2023-05-29T14:11:35;31.20;29.70
63013;DHT22;62113;45.624;11.700;2023-05-29T14:14:05;31.20;30.30
63013;DHT22;62113;45.624;11.700;2023-05-29T14:16:31;31.30;30.40
63013;DHT22;62113;45.624;11.700;2023-05-29T14:18:56;31.40;30.40
63013;DHT22;62113;45.624;11.700;2023-05-29T14:21:22;31.40;30.30
63013;DHT22;62113;45.624;11.700;2023-05-29T14:23:48;31.50;29.40
63013;DHT22;62113;45.624;11.700;2023-05-29T14:26:13;31.50;29.90
63013;DHT22;62113;45.624;11.700;2023-05-29T14:28:38;31.50;29.80
63013;DHT22;62113;45.624;11.700;2023-05-29T14:31:04;31.50;30.00
63013;DHT22;62113;45.624;11.700;2023-05-29T14:33:30;31.60;30.60
63013;DHT22;62113;45.624;11.700;2023-05-29T14:35:56;31.60;30.30
63013;DHT22;62113;45.624;11.700;2023-05-29T14:38:21;31.70;30.00
63013;DHT22;62113;45.624;11.700;2023-05-29T14:40:47;31.70;30.00
63013;DHT22;62113;45.624;11.700;2023-05-29T14:43:12;31.70;30.00
63013;DHT22;62113;45.624;11.700;2023-05-29T14:45:38;31.70;30.10
63013;DHT22;62113;45.624;11.700;2023-05-29T14:48:03;31.70;30.10
63013;DHT22;62113;45.624;11.700;2023-05-29T14:50:30;31.70;30.10
63013;DHT22;62113;45.624;11.700;2023-05-29T14:52:55;31.70;30.40
63013;DHT22;62113;45.624;11.700;2023-05-29T14:55:21;31.70;30.70
63013;DHT22;62113;45.624;11.700;2023-05-29T14:57:46;31.60;30.80
63013;DHT22;62113;45.624;11.700;2023-05-29T15:00:12;31.60;30.90
63013;DHT22;62113;45.624;11.700;2023-05-29T15:02:37;31.70;30.80
63013;DHT22;62113;45.624;11.700;2023-05-29T15:05:05;31.60;30.70
63013;DHT22;62113;45.624;11.700;2023-05-29T15:07:32;31.60;30.90
63013;DHT22;62113;45.624;11.700;2023-05-29T15:09:59;31.50;30.90
63013;DHT22;62113;45.624;11.700;2023-05-29T15:12:25;31.50;30.80
63013;DHT22;62113;45.624;11.700;2023-05-29T15:14:50;31.60;30.70
63013;DHT22;62113;45.624;11.700;2023-05-29T15:17:16;31.50;30.60
63013;DHT22;62113;45.624;11.700;2023-05-29T15:19:43;31.50;30.70
63013;DHT22;62113;45.624;11.700;2023-05-29T15:22:08;31.50;31.00
63013;DHT22;62113;45.624;11.700;2023-05-29T15:24:34;31.40;31.50
63013;DHT22;62113;45.624;11.700;2023-05-29T15:27:00;31.40;31.40
63013;DHT22;62113;45.624;11.700;2023-05-29T15:29:30;31.30;31.80
63013;DHT22;62113;45.624;11.700;2023-05-29T15:31:55;31.30;31.80
63013;DHT22;62113;45.624;11.700;2023-05-29T15:34:21;31.20;32.10
63013;DHT22;62113;45.624;11.700;2023-05-29T15:36:46;31.20;32.40